Aérodrome :
LOGIN :

S'inscrire | Disclaimer

   EN    FR    IT 

 










Légende :    VFR   VFR Marginal   IFR   IFR Intensif   IFR Très Intensif
Visi : 
Plafond : 
>= 8 km
>= 3000ft
5 à 8 km
1000 à 3000 ft
1500m à 5 km
500 à 1000 ft
800 à 1500m
200 à 500 ft
< 800m
< 200 ft
Symboles :   Orages  Brouillard  Fortes neiges  Fortes précipitations  Vent > 20 kt
SIGMETs :   Divers  Orages  Givrage  Turbulence  Onde Orograph.  Cendres Volcan.






- Altitude de l'aérodrome : 764 ft
- Code IATA : YEI


LTBR - Yenisehir AB

DERNIER METAR :
  • 141220Z 14008KT 100V180 CAVOK 19/05 Q1002 NOSIG RMK RWY07 17009KT

METARs EXPIRÉS :
  • 141150Z 15010KT CAVOK 19/04 Q1002 NOSIG RMK RWY07 15007KT
  • 141120Z 14007KT 110V170 CAVOK 19/05 Q1002 NOSIG RMK RWY07 14008KT
  • 141050Z 15011KT 120V180 CAVOK 19/05 Q1002 NOSIG
  • 141020Z 14010KT CAVOK 18/05 Q1002 NOSIG RMK RWY07 15009KT
  • 140950Z 13009KT CAVOK 18/05 Q1003 NOSIG RMK RWY07 15008KT

TAF TAF LTBR
Valide du 14 à 12h jusqu'au 15 à 12h UTC


141040Z 1412/1512 15015KT CAVOK
BECMG 1414/1417 08012KT
BECMG 1500/1503 VRB02KT FEW040 BKN100
PROB30 1504/1506 3500 BR



MET'MAP, la Météo Aéronautique d'un coup d'oeil ! - Copyright ORBIFLY Décembre 2007 - Disclaimer

ORBIFLY MET'MAP TEAM :

Programmation & Développement : Alexandra Zaïnal
Sur une idée originale de : Baudouin d'Aumeries
Assistance à la programmation : Marc-Olivier Méhu
Soutien technique & logistique : Manuel Goepfert

Contact : metmap@orbifly.com




SOURCES & CREDITS :

   NOAA